^^
Grace C. Lehan Memorial Weather Station Historical Data
Daily Summary for March 5, 2021 Units:  English    Metric   Both
Daily Weekly Monthly Yearly
  High: Low: Average:
Temperature: 63.9 °F 61.3 °F 62.2 °F
Dew Point: 61.5 °F 59.6 °F 60.6 °F
Humidity: 96% 92% 95%
Wind Speed: 0.1mph 0mph 0mph
Wind Gust: 2mph - -
Wind- - NNE
Pressure: 30.06 in 29.97 in -
Precipitation: 0.00 in    
 
 
Tabular Data for March 5, 2021
Time Temperature Dew Point Pressure Wind Wind Speed Wind Gust Humidity Rainfall Rate (Hourly) solar
00:04 63.9 °F 61.5 °F 29.97 in Calm     92% 0.00 in 0 W/m2
00:09 63.9 °F 61.5 °F 29.97 in Calm     92% 0.00 in 0 W/m2
00:14 63.8 °F 61.4 °F 29.98 in Calm     92% 0.00 in 0 W/m2
00:19 63.8 °F 61.4 °F 29.98 in Calm     92% 0.00 in 0 W/m2
00:24 63.7 °F 61.5 °F 29.98 in Calm     92.4% 0.00 in 0 W/m2
00:29 63.7 °F 61.3 °F 29.98 in Calm     92% 0.00 in 0 W/m2
00:34 63.6 °F 61.4 °F 29.98 in Calm     92.7% 0.00 in 0 W/m2
00:39 63.6 °F 61.5 °F 29.98 in Calm     93% 0.00 in 0 W/m2
00:44 63.5 °F 61.5 °F 29.98 in Calm     93% 0.00 in 0 W/m2
00:49 63.5 °F 61.4 °F 29.98 in Calm     93% 0.00 in 0 W/m2
00:54 63.5 °F 61.4 °F 29.98 in Calm     93% 0.00 in 0 W/m2
00:59 63.4 °F 61.3 °F 29.98 in Calm     93% 0.00 in 0 W/m2
01:04 63.4 °F 61.3 °F 29.98 in Calm     93% 0.00 in 0 W/m2
01:09 63.4 °F 61.3 °F 29.98 in Calm     93% 0.00 in 0 W/m2
01:14 63.3 °F 61.3 °F 29.98 in Calm     93% 0.00 in 0 W/m2
01:19 63.3 °F 61.3 °F 29.98 in Calm     93% 0.00 in 0 W/m2
01:24 63.2 °F 61.2 °F 29.98 in Calm     93% 0.00 in 0 W/m2
01:29 63.1 °F 61 °F 29.98 in Calm     93% 0.00 in 0 W/m2
01:34 62.9 °F 60.9 °F 29.98 in Calm     93% 0.00 in 0 W/m2
01:39 62.8 °F 60.8 °F 29.97 in Calm     93% 0.00 in 0 W/m2
01:44 62.7 °F 60.7 °F 29.97 in Calm     93% 0.00 in 0 W/m2
01:49 62.6 °F 60.6 °F 29.98 in Calm     93% 0.00 in 0 W/m2
01:54 62.6 °F 60.7 °F 29.98 in Calm     93.5% 0.00 in 0 W/m2
01:59 62.5 °F 60.6 °F 29.98 in Calm     93.6% 0.00 in 0 W/m2
02:04 62.5 °F 60.8 °F 29.98 in Calm     94% 0.00 in 0 W/m2
02:09 62.4 °F 60.7 °F 29.98 in Calm     94% 0.00 in 0 W/m2
02:14 62.4 °F 60.6 °F 29.98 in Calm     94% 0.00 in 0 W/m2
02:19 62.3 °F 60.6 °F 29.98 in Calm     94% 0.00 in 0 W/m2
02:24 62.2 °F 60.5 °F 29.98 in Calm     94% 0.00 in 0 W/m2
02:29 62.2 °F 60.5 °F 29.98 in Calm     94% 0.00 in 0 W/m2
02:34 62.1 °F 60.4 °F 29.99 in Calm     94% 0.00 in 0 W/m2
02:39 62 °F 60.3 °F 29.99 in Calm     94% 0.00 in 0 W/m2
02:44 62 °F 60.2 °F 29.99 in Calm     94% 0.00 in 0 W/m2
02:49 61.8 °F 60.1 °F 29.99 in Calm     94% 0.00 in 0 W/m2
02:54 61.8 °F 60.1 °F 29.99 in Calm     94% 0.00 in 0 W/m2
02:59 61.8 °F 60.1 °F 29.99 in Calm     94% 0.00 in 0 W/m2
03:04 61.7 °F 60 °F 29.99 in Calm     94% 0.00 in 0 W/m2
03:09 61.7 °F 60 °F 29.99 in Calm   1 mph 94% 0.00 in 0 W/m2
03:14 61.7 °F 59.9 °F 29.99 in Calm   1 mph 94% 0.00 in 0 W/m2
03:19 61.6 °F 60.1 °F 29.99 in Calm   1 mph 94.7% 0.00 in 0 W/m2
03:24 61.6 °F 60.2 °F 29.99 in Calm   1 mph 95% 0.00 in 0 W/m2
03:29 61.5 °F 60.1 °F 29.99 in Calm   1 mph 95% 0.00 in 0 W/m2
03:34 61.4 °F 60 °F 29.99 in Calm   1 mph 95% 0.00 in 0 W/m2
03:39 61.4 °F 59.8 °F 29.99 in Calm     94.5% 0.00 in 0 W/m2
03:44 61.3 °F 59.6 °F 29.99 in Calm     94.1% 0.00 in 0 W/m2
03:49 61.3 °F 59.9 °F 29.99 in Calm     95% 0.00 in 0 W/m2
03:54 61.3 °F 59.9 °F 29.99 in Calm     95% 0.00 in 0 W/m2
03:59 61.4 °F 60 °F 30.00 in Calm     95% 0.00 in 0 W/m2
04:04 61.6 °F 60.2 °F 29.99 in Calm     95% 0.00 in 0 W/m2
04:09 61.6 °F 60.2 °F 30.00 in Calm   2 mph 95% 0.00 in 0 W/m2
04:14 61.7 °F 60.3 °F 30.00 in Calm   2 mph 95% 0.00 in 0 W/m2
04:19 61.7 °F 60.3 °F 30.00 in Calm   2 mph 95% 0.00 in 0 W/m2
04:24 61.7 °F 60.3 °F 30.00 in Calm   2 mph 95% 0.00 in 0 W/m2
04:29 61.7 °F 60.2 °F 30.00 in Calm   2 mph 95% 0.00 in 0 W/m2
04:34 61.7 °F 60.2 °F 30.01 in Calm   2 mph 95% 0.00 in 0 W/m2
04:39 61.6 °F 60.2 °F 30.01 in Calm     95% 0.00 in 0 W/m2
04:44 61.6 °F 60.2 °F 30.01 in Calm     95% 0.00 in 0 W/m2
04:49 61.7 °F 60.3 °F 30.01 in Calm     95% 0.00 in 0 W/m2
04:54 61.7 °F 60.3 °F 30.01 in Calm     95% 0.00 in 0 W/m2
04:59 61.7 °F 60.3 °F 30.01 in Calm     95% 0.00 in 0 W/m2
05:04 61.7 °F 60.3 °F 30.01 in Calm   1 mph 95% 0.00 in 0 W/m2
05:09 61.6 °F 60.2 °F 30.01 in Calm   1 mph 95% 0.00 in 0 W/m2
05:14 61.6 °F 60.2 °F 30.01 in Calm   1 mph 95% 0.00 in 0 W/m2
05:19 61.6 °F 60.1 °F 30.01 in Calm   1 mph 95% 0.00 in 0 W/m2
05:24 61.6 °F 60.1 °F 30.01 in Calm   1 mph 95% 0.00 in 0 W/m2
05:29 61.6 °F 60.1 °F 30.02 in Calm   1 mph 95% 0.00 in 0 W/m2
05:34 61.6 °F 60.2 °F 30.02 in Calm   1 mph 95% 0.00 in 0 W/m2
05:39 61.6 °F 60.2 °F 30.02 in Calm     95% 0.00 in 0 W/m2
05:44 61.6 °F 60.2 °F 30.02 in Calm     95% 0.00 in 0 W/m2
05:49 61.6 °F 60.2 °F 30.02 in Calm     95% 0.00 in 0 W/m2
05:54 61.7 °F 60.3 °F 30.02 in Calm   1 mph 95% 0.00 in 0 W/m2
05:59 61.7 °F 60.3 °F 30.03 in Calm   1 mph 95% 0.00 in 5 W/m2
06:04 61.7 °F 60.3 °F 30.02 in Calm   1 mph 95% 0.00 in 5 W/m2
06:09 61.8 °F 60.4 °F 30.02 in NNE 0.1 mph 2 mph 95% 0.00 in 7 W/m2
06:14 61.8 °F 60.4 °F 30.02 in Calm   2 mph 95% 0.00 in 9 W/m2
06:19 61.8 °F 60.4 °F 30.02 in Calm   2 mph 95% 0.00 in 9 W/m2
06:24 61.8 °F 60.4 °F 30.03 in Calm   2 mph 95% 0.00 in 12 W/m2
06:29 61.8 °F 60.4 °F 30.03 in Calm   2 mph 95% 0.00 in 12 W/m2
06:34 61.8 °F 60.4 °F 30.03 in Calm   2 mph 95% 0.00 in 12 W/m2
06:39 61.9 °F 60.4 °F 30.03 in Calm   1 mph 95% 0.00 in 16 W/m2
06:44 61.9 °F 60.5 °F 30.03 in Calm   1 mph 95% 0.00 in 16 W/m2
06:49 61.9 °F 60.5 °F 30.04 in Calm   1 mph 95% 0.00 in 21 W/m2
06:54 61.9 °F 60.5 °F 30.04 in Calm   1 mph 95% 0.00 in 21 W/m2
06:59 61.9 °F 60.5 °F 30.04 in Calm   1 mph 95% 0.00 in 26 W/m2
07:04 62 °F 60.6 °F 30.04 in Calm   1 mph 95% 0.00 in 26 W/m2
07:09 62.2 °F 60.7 °F 30.05 in Calm     95% 0.00 in 19 W/m2
07:14 62.2 °F 60.8 °F 30.05 in Calm     95% 0.00 in 19 W/m2
07:19 62.2 °F 60.8 °F 30.05 in Calm     95% 0.00 in 23 W/m2
07:24 62.3 °F 61.1 °F 30.05 in Calm     95.8% 0.00 in 28 W/m2
07:29 62.3 °F 61.2 °F 30.05 in Calm     96% 0.00 in 28 W/m2
07:34 62.3 °F 61.1 °F 30.05 in Calm     95.9% 0.00 in 26 W/m2
07:39 62.3 °F 61 °F 30.05 in Calm     95.3% 0.00 in 35 W/m2
07:44 62.3 °F 61.1 °F 30.05 in Calm     95.9% 0.00 in 39 W/m2
07:49 62.3 °F 61.2 °F 30.05 in Calm     96% 0.00 in 37 W/m2
07:54 62.3 °F 61.2 °F 30.05 in Calm   2 mph 96% 0.00 in 47 W/m2
07:59 62.3 °F 61.2 °F 30.06 in NNE 0.1 mph 2 mph 96% 0.00 in 44 W/m2
08:09 62.3 °F 61.2 °F 30.06 in Calm     96% 0.00 in 46 W/m2
08:14 62.3 °F 61.2 °F 30.06 in Calm     96% 0.00 in 63 W/m2
08:19 62.3 °F 61.2 °F 30.06 in Calm     96% 0.00 in 76 W/m2
08:24 62.3 °F 61.2 °F 30.06 in Calm     96% 0.00 in 86 W/m2
08:29 62.3 °F 61.2 °F 30.06 in Calm     96% 0.00 in 67 W/m2
08:34 62.4 °F 61.3 °F 30.06 in Calm     96% 0.00 in 67 W/m2
08:39 62.5 °F 61.4 °F 30.06 in Calm     96% 0.00 in 56 W/m2
08:43 62.6 °F 61.5 °F 30.06 in Calm     96% 0.00 in 53 W/m2
Hartford County Weather
Compliments of Weather Underground - 2 mb